Time;durP1;ratioP1;P1;durP2;ratioP2;P2;SDS_P1;SDS_P2;PMS_P1;PMS_P2;Temp;Humidity;BMP_temperature;BMP_pressure;BME280_temperature;BME280_humidity;BME280_pressure;Samples;Min_cycle;Max_cycle;Signal;HPM_P1;HPM_P2
2023/01/12 00:01:42;;;;;;;11.20;5.60;;;;;;;;;;5020043;28;20330;-88
2023/01/12 00:04:08;;;;;;;4.80;3.60;;;;;;;;;;4986247;28;20196;-88
2023/01/12 00:06:34;;;;;;;17.73;6.60;;;;;;;;;;5003032;28;20180;-87
2023/01/12 00:09:07;;;;;;;7.20;3.40;;;3.00;99.90;;;;;;5003415;28;20240;-88
2023/01/12 00:11:34;;;;;;;5.90;3.37;;;3.00;99.90;;;;;;5019815;28;20232;-87
2023/01/12 00:14:00;;;;;;;5.77;3.30;;;;;;;;;;5002720;28;20177;-88
2023/01/12 00:16:42;;;;;;;5.43;4.23;;;;;;;;;;5020393;28;20180;-87
2023/01/12 00:19:19;;;;;;;6.97;2.90;;;3.00;99.90;;;;;;5019730;28;20200;-88
2023/01/12 00:21:57;;;;;;;6.83;3.27;;;3.10;99.90;;;;;;5002975;28;20173;-88
2023/01/12 00:24:28;;;;;;;3.20;2.63;;;2.90;99.90;;;;;;5003032;28;20189;-88
2023/01/12 00:26:55;;;;;;;5.00;2.87;;;2.90;99.90;;;;;;5004137;28;20169;-87
2023/01/12 00:29:23;;;;;;;7.93;3.40;;;2.90;99.90;;;;;;5019902;28;20180;-88
2023/01/12 00:31:49;;;;;;;4.57;3.30;;;;;;;;;;5002940;28;20205;-88
2023/01/12 00:34:16;;;;;;;6.90;4.93;;;;;;;;;;5002487;28;20188;-88
2023/01/12 00:36:42;;;;;;;5.33;4.20;;;;;;;;;;5002813;28;20180;-88
2023/01/12 00:39:09;;;;;;;9.97;2.83;;;;;;;;;;5002391;28;20227;-87
2023/01/12 00:47:07;;;;;;;6.67;4.70;;;3.00;99.90;;;;;;4995599;28;20253;-87
2023/01/12 00:49:35;;;;;;;18.20;6.53;;;;;;;;;;4999758;28;20483;-87
2023/01/12 00:52:01;;;;;;;12.23;5.47;;;;;;;;;;4965740;28;20674;-88
2023/01/12 00:54:34;;;;;;;5.70;4.53;;;;;;;;;;4983015;28;20184;-88
2023/01/12 00:57:03;;;;;;;7.23;3.97;;;;;;;;;;5000927;28;20170;-88
2023/01/12 00:59:30;;;;;;;3.77;3.00;;;;;;;;;;4982037;28;20182;-88
2023/01/12 01:01:57;;;;;;;3.07;2.37;;;;;;;;;;4981359;28;20189;-88
2023/01/12 01:04:23;;;;;;;2.67;2.43;;;;;;;;;;4981985;28;20184;-87
2023/01/12 01:06:52;;;;;;;2.73;2.53;;;;;;;;;;4982580;28;20197;-87
2023/01/12 01:09:18;;;;;;;6.87;3.00;;;;;;;;;;4980808;28;20642;-88
2023/01/12 01:11:44;;;;;;;6.13;3.77;;;;;;;;;;4982531;28;20224;-87
2023/01/12 01:14:14;;;;;;;4.77;3.07;;;;;;;;;;4980194;28;20694;-87
2023/01/12 01:16:42;;;;;;;5.03;2.20;;;;;;;;;;4965070;28;20701;-87
2023/01/12 01:19:09;;;;;;;5.93;2.97;;;3.00;99.90;;;;;;4980724;28;20189;-87
2023/01/12 01:21:37;;;;;;;2.60;2.33;;;;;;;;;;4981378;28;20653;-87
2023/01/12 01:24:04;;;;;;;3.73;1.90;;;;;;;;;;4980664;28;20269;-86
2023/01/12 01:26:30;;;;;;;5.73;4.43;;;;;;;;;;4978696;28;20546;-87
2023/01/12 01:28:57;;;;;;;6.60;2.53;;;;;;;;;;4979473;28;20239;-87
2023/01/12 01:31:25;;;;;;;5.50;4.20;;;2.90;99.90;;;;;;4979804;28;20217;-88
2023/01/12 01:33:52;;;;;;;4.03;3.60;;;;;;;;;;4980963;28;20180;-87
2023/01/12 01:36:21;;;;;;;8.70;4.17;;;;;;;;;;4979280;28;20220;-87
2023/01/12 01:38:48;;;;;;;3.67;3.37;;;2.90;99.90;;;;;;4979484;28;20619;-86
2023/01/12 01:41:21;;;;;;;5.07;3.70;;;2.90;99.90;;;;;;4979814;28;20186;-87
2023/01/12 01:44:05;;;;;;;11.33;3.67;;;2.90;99.90;;;;;;4981977;28;20189;-87
2023/01/12 01:46:37;;;;;;;4.50;3.60;;;;;;;;;;4979579;28;20188;-87
2023/01/12 01:49:25;;;;;;;3.50;3.20;;;2.90;99.90;;;;;;4979742;28;20189;-88
2023/01/12 01:51:54;;;;;;;5.70;3.87;;;;;;;;;;4994954;28;20566;-87
2023/01/12 01:54:22;;;;;;;4.50;2.90;;;;;;;;;;4978879;28;20181;-87
2023/01/12 01:56:53;;;;;;;4.67;3.30;;;2.90;99.90;;;;;;4978890;28;20269;-87
2023/01/12 01:59:27;;;;;;;5.83;3.27;;;2.90;99.90;;;;;;4978284;28;20192;-87
2023/01/12 02:01:54;;;;;;;5.43;4.53;;;;;;;;;;4978908;28;20271;-87
2023/01/12 02:04:21;;;;;;;4.13;2.80;;;;;;;;;;4962784;28;20189;-87
2023/01/12 02:06:48;;;;;;;4.67;3.43;;;2.80;99.90;;;;;;4978432;28;20182;-87
2023/01/12 02:09:28;;;;;;;3.00;2.53;;;2.90;99.90;;;;;;4979129;28;20212;-87
2023/01/12 02:18:04;;;;;;;8.43;2.83;;;2.90;99.90;;;;;;4996428;28;20190;-88
2023/01/12 02:21:06;;;;;;;2.70;2.47;;;2.60;99.90;;;;;;4978757;28;20295;-87
2023/01/12 02:23:57;;;;;;;5.30;2.67;;;2.70;99.90;;;;;;4978871;28;20177;-87
2023/01/12 02:26:44;;;;;;;11.63;4.20;;;3.00;99.90;;;;;;4978821;28;20626;-87
2023/01/12 02:29:12;;;;;;;3.07;2.53;;;;;;;;;;4978803;28;20188;-87
2023/01/12 02:32:11;;;;;;;1.83;1.73;;;2.90;99.90;;;;;;4978271;28;20202;-87
2023/01/12 02:34:40;;;;;;;3.90;2.90;;;;;;;;;;4993978;28;20188;-87
2023/01/12 02:37:32;;;;;;;4.87;2.30;;;2.90;99.90;;;;;;4977700;28;20181;-87
2023/01/12 02:40:04;;;;;;;7.00;2.13;;;;;;;;;;4978025;28;20178;-87
2023/01/12 02:42:56;;;;;;;4.67;1.97;;;2.80;99.90;;;;;;4977417;28;20197;-88
2023/01/12 02:45:22;;;;;;;1.83;1.73;;;;;;;;;;4962795;28;20209;-87
2023/01/12 02:48:13;;;;;;;7.37;3.30;;;2.90;99.90;;;;;;4977488;28;20232;-86
2023/01/12 02:50:44;;;;;;;3.73;3.43;;;;;;;;;;4977241;28;20256;-87
2023/01/12 02:53:15;;;;;;;5.23;4.83;;;;;;;;;;4978130;28;20205;-87
2023/01/12 02:55:42;;;;;;;5.93;3.23;;;;;;;;;;4995651;28;20169;-86
2023/01/12 02:58:12;;;;;;;3.30;2.53;;;2.90;99.90;;;;;;4965353;28;20209;-87
2023/01/12 03:00:42;;;;;;;5.43;2.97;;;2.90;99.90;;;;;;5011615;28;20185;-87
2023/01/12 03:03:10;;;;;;;3.97;3.53;;;;;;;;;;5016462;28;20591;-88
2023/01/12 03:05:39;;;;;;;4.80;2.73;;;;;;;;;;4999190;28;20192;-88
2023/01/12 03:08:06;;;;;;;6.13;3.10;;;;;;;;;;5001295;28;20626;-87
2023/01/12 03:10:38;;;;;;;7.97;4.57;;;;;;;;;;5000345;28;20232;-87
2023/01/12 03:13:07;;;;;;;2.33;2.07;;;;;;;;;;5000503;28;20284;-87
2023/01/12 03:15:35;;;;;;;2.50;2.30;;;;;;;;;;5001128;28;20182;-88
2023/01/12 03:18:08;;;;;;;1.60;1.50;;;;;;;;;;5000690;28;20177;-87
2023/01/12 03:20:36;;;;;;;5.90;2.23;;;;;;;;;;5001683;28;20154;-88
2023/01/12 03:23:10;;;;;;;5.70;3.27;;;;;;;;;;4995939;28;20181;-87
2023/01/12 03:25:39;;;;;;;6.47;2.73;;;;;;;;;;4995997;28;20182;-90
2023/01/12 03:28:07;;;;;;;4.13;2.60;;;3.20;99.90;;;;;;4996411;28;20184;-87
2023/01/12 03:30:40;;;;;;;2.80;2.60;;;3.20;99.90;;;;;;4996611;28;20574;-88
2023/01/12 03:33:07;;;;;;;6.27;3.70;;;3.20;99.90;;;;;;4994402;28;20729;-87
2023/01/12 03:35:50;;;;;;;4.23;3.33;;;3.20;99.90;;;;;;4979355;28;20193;-87
2023/01/12 03:38:32;;;;;;;4.10;2.87;;;3.20;99.90;;;;;;5000020;28;20615;-87
2023/01/12 03:41:05;;;;;;;6.27;4.07;;;3.20;99.90;;;;;;4999941;28;20192;-87
2023/01/12 03:43:49;;;;;;;3.90;3.53;;;3.20;99.90;;;;;;4988466;28;20522;-87
2023/01/12 03:46:30;;;;;;;3.10;2.90;;;3.20;99.90;;;;;;4981305;28;20192;-87
2023/01/12 03:49:06;;;;;;;7.33;4.20;;;3.20;99.90;;;;;;4978152;28;20182;-87
2023/01/12 03:51:40;;;;;;;3.23;2.90;;;3.20;99.90;;;;;;4977996;28;20256;-87
2023/01/12 03:54:09;;;;;;;6.10;4.30;;;3.20;99.90;;;;;;4977953;28;20174;-87
2023/01/12 03:56:37;;;;;;;8.53;2.87;;;3.20;99.90;;;;;;4978519;28;20620;-87
2023/01/12 03:59:06;;;;;;;4.80;3.87;;;3.20;99.90;;;;;;4986464;28;20174;-87
2023/01/12 04:01:33;;;;;;;7.50;4.50;;;;;;;;;;4996888;28;20205;-86
2023/01/12 04:03:59;;;;;;;9.60;4.77;;;;;;;;;;4996452;28;20268;-86
2023/01/12 04:06:26;;;;;;;4.73;3.03;;;;;;;;;;4996821;28;20182;-87
2023/01/12 04:08:52;;;;;;;8.93;3.93;;;;;;;;;;4980347;28;20190;-87
2023/01/12 04:14:03;;;;;;;2.83;2.40;;;;;;;;;;5017791;28;20637;-87
2023/01/12 04:16:29;;;;;;;10.80;4.47;;;;;;;;;;4996297;28;20280;-87
2023/01/12 04:18:55;;;;;;;6.90;4.17;;;;;;;;;;4982035;28;20182;-88
2023/01/12 04:24:07;;;;;;;7.57;4.73;;;;;;;;;;4983330;28;20649;-87
2023/01/12 04:26:33;;;;;;;4.67;4.00;;;;;;;;;;4980158;28;20189;-88
2023/01/12 04:28:59;;;;;;;6.63;3.67;;;;;;;;;;4964515;28;20249;-88
2023/01/12 04:31:25;;;;;;;13.53;5.70;;;;;;;;;;4981433;28;20217;-88
2023/01/12 04:33:51;;;;;;;11.60;5.00;;;;;;;;;;4983476;28;20185;-89
2023/01/12 04:36:17;;;;;;;11.60;4.13;;;;;;;;;;4966751;28;20189;-89
2023/01/12 04:38:43;;;;;;;7.97;4.37;;;;;;;;;;4984159;28;20200;-88
2023/01/12 04:41:09;;;;;;;8.00;4.97;;;;;;;;;;4969933;28;20239;-87
2023/01/12 04:43:35;;;;;;;15.40;6.13;;;;;;;;;;4991448;28;20191;-87
2023/01/12 04:46:09;;;;;;;8.70;5.27;;;3.40;99.90;;;;;;4982266;28;20185;-88
2023/01/12 04:48:37;;;;;;;10.47;5.83;;;3.50;99.90;;;;;;4981889;28;20185;-88
2023/01/12 04:51:03;;;;;;;9.03;3.77;;;;;;;;;;4982068;28;20185;-88
2023/01/12 04:53:30;;;;;;;5.23;4.27;;;3.50;99.90;;;;;;4985332;28;20200;-88
2023/01/12 04:55:56;;;;;;;7.60;4.63;;;;;;;;;;5003013;28;20173;-89
2023/01/12 04:58:24;;;;;;;7.50;3.70;;;;;;;;;;5000291;28;20185;-88
2023/01/12 05:00:50;;;;;;;10.33;4.17;;;;;;;;;;5000711;28;20220;-92
2023/01/12 05:03:16;;;;;;;7.03;4.27;;;;;;;;;;5001078;28;20230;-87
2023/01/12 05:05:42;;;;;;;10.03;4.80;;;;;;;;;;5000595;28;20187;-87
2023/01/12 05:10:59;;;;;;;6.83;3.83;;;3.60;99.90;;;;;;5016707;28;20235;-88
2023/01/12 05:13:31;;;;;;;21.97;6.83;;;3.60;99.90;;;;;;4982912;28;20200;-88
2023/01/12 05:16:12;;;;;;;4.30;3.87;;;3.60;99.90;;;;;;4999809;28;20187;-89
2023/01/12 05:18:38;;;;;;;12.63;4.00;;;;;;;;;;5004802;28;20247;-88
2023/01/12 05:21:05;;;;;;;11.80;6.10;;;;;;;;;;4975371;28;20189;-88
2023/01/12 05:23:31;;;;;;;4.00;3.27;;;;;;;;;;4986875;28;20181;-87
2023/01/12 05:26:05;;;;;;;5.17;3.80;;;;;;;;;;4979636;28;20236;-88
2023/01/12 05:28:32;;;;;;;8.30;4.60;;;;;;;;;;4997588;28;20248;-87
2023/01/12 05:31:08;;;;;;;14.03;8.30;;;3.70;99.90;;;;;;4984545;28;20674;-87
2023/01/12 05:33:34;;;;;;;20.13;7.60;;;;;;;;;;4980623;28;20203;-88
2023/01/12 05:36:03;;;;;;;10.43;5.13;;;;;;;;;;4986817;28;20197;-87
2023/01/12 05:38:29;;;;;;;8.23;4.37;;;;;;;;;;4987617;28;20232;-89
2023/01/12 05:41:02;;;;;;;8.87;5.07;;;3.70;99.90;;;;;;4962125;28;20248;-87
2023/01/12 05:46:13;;;;;;;13.47;5.17;;;;;;;;;;4992084;28;20196;-88
2023/01/12 05:48:39;;;;;;;10.10;5.00;;;;;;;;;;4976846;28;20178;-88
2023/01/12 05:51:07;;;;;;;5.00;3.73;;;3.80;99.90;;;;;;4989407;28;20181;-87
2023/01/12 05:53:33;;;;;;;10.50;4.70;;;;;;;;;;4996089;28;20185;-88
2023/01/12 05:56:05;;;;;;;7.73;4.93;;;3.80;99.90;;;;;;4980016;28;20239;-87
2023/01/12 05:58:31;;;;;;;6.77;3.97;;;;;;;;;;5000202;28;20209;-89
2023/01/12 06:00:57;;;;;;;11.17;5.07;;;;;;;;;;4992772;28;20194;-88
2023/01/12 06:03:23;;;;;;;4.17;3.80;;;;;;;;;;4989509;28;20267;-88
2023/01/12 06:05:54;;;;;;;8.33;4.30;;;3.80;99.90;;;;;;4990009;28;20265;-88
2023/01/12 06:08:20;;;;;;;5.13;4.57;;;;;;;;;;4986904;28;20190;-87
2023/01/12 06:10:47;;;;;;;7.33;4.93;;;;;;;;;;4994971;28;20287;-88
2023/01/12 06:16:04;;;;;;;9.87;6.33;;;4.00;99.90;;;;;;4998344;28;20184;-92
2023/01/12 06:18:37;;;;;;;10.93;5.73;;;3.80;99.90;;;;;;4980153;28;20717;-86
2023/01/12 06:21:05;;;;;;;6.10;4.17;;;4.00;99.90;;;;;;4988792;28;20197;-89
2023/01/12 06:23:32;;;;;;;11.33;6.80;;;;;;;;;;4972532;28;20212;-86
2023/01/12 06:26:02;;;;;;;10.83;5.43;;;3.70;99.90;;;;;;5004892;28;20190;-86
2023/01/12 06:28:28;;;;;;;4.70;3.53;;;;;;;;;;4981573;28;20673;-86
2023/01/12 06:30:59;;;;;;;11.10;5.57;;;4.20;99.90;;;;;;4994186;28;20200;-88
2023/01/12 06:33:26;;;;;;;7.77;5.37;;;4.00;99.90;;;;;;4990480;28;20228;-87
2023/01/12 06:35:53;;;;;;;12.50;4.17;;;4.10;99.90;;;;;;4982945;28;20337;-87
2023/01/12 06:38:20;;;;;;;9.73;4.73;;;4.10;99.90;;;;;;4997662;28;20629;-88
2023/01/12 06:40:46;;;;;;;7.43;4.70;;;;;;;;;;4988374;28;20186;-90
2023/01/12 06:43:15;;;;;;;11.77;5.93;;;;;;;;;;4989882;28;20520;-89
2023/01/12 06:45:45;;;;;;;8.43;4.47;;;;;;;;;;4986677;28;20517;-89
2023/01/12 06:48:11;;;;;;;6.57;4.87;;;;;;;;;;4983344;28;20186;-88
2023/01/12 06:50:38;;;;;;;5.33;4.20;;;;;;;;;;4999139;28;20179;-86
2023/01/12 06:53:07;;;;;;;4.30;3.80;;;4.10;99.90;;;;;;4988390;28;20208;-87
2023/01/12 06:55:33;;;;;;;7.10;4.83;;;;;;;;;;4979808;28;20253;-87
2023/01/12 06:58:03;;;;;;;7.67;3.97;;;4.10;99.90;;;;;;4975959;28;20508;-87
2023/01/12 07:00:33;;;;;;;6.60;4.60;;;4.10;99.90;;;;;;4985240;28;20197;-88
2023/01/12 07:02:59;;;;;;;4.23;3.83;;;;;;;;;;4985061;28;20537;-88
2023/01/12 07:05:25;;;;;;;10.23;5.23;;;;;;;;;;4986205;28;20185;-90
2023/01/12 07:07:58;;;;;;;9.87;5.47;;;4.10;99.90;;;;;;4987897;28;20178;-86
2023/01/12 07:10:24;;;;;;;10.27;5.80;;;;;;;;;;4990027;28;20674;-88
2023/01/12 07:12:50;;;;;;;9.13;5.67;;;;;;;;;;4968468;28;20217;-87
2023/01/12 07:15:16;;;;;;;8.50;4.87;;;;;;;;;;4977907;28;20186;-88
2023/01/12 07:17:42;;;;;;;5.20;4.20;;;;;;;;;;4985444;28;20655;-87
2023/01/12 07:20:09;;;;;;;10.73;5.30;;;;;;;;;;4999745;28;20197;-88
2023/01/12 07:22:35;;;;;;;8.03;5.90;;;;;;;;;;5000562;28;20280;-88
2023/01/12 07:25:01;;;;;;;8.47;5.30;;;;;;;;;;4971712;28;20205;-88
2023/01/12 07:27:27;;;;;;;8.40;4.23;;;;;;;;;;4973980;28;20248;-88
2023/01/12 07:29:53;;;;;;;8.93;4.97;;;;;;;;;;4990837;28;20647;-87
2023/01/12 07:32:19;;;;;;;7.97;3.83;;;;;;;;;;4977774;28;20248;-91
2023/01/12 07:34:45;;;;;;;9.70;5.20;;;;;;;;;;4977822;28;20198;-88
2023/01/12 07:37:11;;;;;;;5.43;4.33;;;;;;;;;;4990428;28;20562;-87
2023/01/12 07:39:37;;;;;;;10.33;5.30;;;;;;;;;;4990052;28;20196;-87
2023/01/12 07:44:48;;;;;;;5.77;4.93;;;;;;;;;;4987881;28;20200;-89
2023/01/12 07:47:14;;;;;;;5.60;3.70;;;;;;;;;;4984114;28;20182;-86
2023/01/12 07:49:40;;;;;;;7.20;4.43;;;;;;;;;;4977484;28;20668;-87
2023/01/12 07:52:06;;;;;;;9.07;5.97;;;;;;;;;;4972520;28;20671;-87
2023/01/12 07:54:34;;;;;;;10.33;5.13;;;;;;;;;;4993445;28;20193;-87
2023/01/12 07:57:02;;;;;;;5.70;4.00;;;;;;;;;;4990068;28;20182;-88
2023/01/12 07:59:28;;;;;;;4.43;3.60;;;;;;;;;;4986770;28;20198;-86
2023/01/12 08:01:54;;;;;;;10.23;4.93;;;;;;;;;;5005931;28;20686;-88
2023/01/12 08:04:21;;;;;;;5.80;5.20;;;;;;;;;;4969901;28;20186;-89
2023/01/12 08:06:47;;;;;;;7.63;5.27;;;;;;;;;;4996787;28;20209;-88
2023/01/12 08:09:15;;;;;;;6.30;3.87;;;4.40;99.90;;;;;;4984645;28;20243;-89
2023/01/12 08:11:41;;;;;;;8.07;5.13;;;;;;;;;;4984146;28;20229;-89
2023/01/12 08:14:07;;;;;;;6.50;4.80;;;;;;;;;;4977592;28;20185;-88
2023/01/12 08:16:53;;;;;;;5.27;3.90;;;;;;;;;;4998756;28;20189;-88
2023/01/12 08:19:23;;;;;;;5.27;3.97;;;4.50;99.90;;;;;;5011673;28;20240;-88
2023/01/12 08:21:59;;;;;;;8.47;5.40;;;4.50;99.90;;;;;;4993656;28;20252;-90
2023/01/12 08:24:28;;;;;;;5.67;4.13;;;;;;;;;;4998376;28;20197;-88
2023/01/12 08:26:58;;;;;;;7.00;4.93;;;4.50;99.90;;;;;;4989598;28;20538;-90
2023/01/12 08:29:30;;;;;;;6.73;4.83;;;;;;;;;;4996487;28;20185;-88
2023/01/12 08:32:06;;;;;;;7.67;5.10;;;;;;;;;;4993262;28;20208;-89
2023/01/12 08:34:35;;;;;;;10.73;4.83;;;;;;;;;;5001975;28;20264;-90
2023/01/12 08:37:04;;;;;;;18.67;7.10;;;;;;;;;;4978886;28;20293;-90
2023/01/12 08:39:33;;;;;;;7.17;3.93;;;;;;;;;;5004160;28;20256;-90
2023/01/12 08:41:59;;;;;;;14.33;6.50;;;;;;;;;;5004256;28;20197;-91
2023/01/12 08:44:45;;;;;;;;;;;;;;;;;;;;;
2023/01/12 08:47:17;;;;;;;9.83;4.53;;;;;;;;;;5021144;28;20249;-90
2023/01/12 08:49:52;;;;;;;11.57;5.67;;;;;;;;;;4997260;28;20645;-90
2023/01/12 08:52:18;;;;;;;5.20;4.73;;;;;;;;;;5014354;28;20220;-90
2023/01/12 08:54:44;;;;;;;9.37;4.37;;;;;;;;;;5004744;28;20199;-90
2023/01/12 08:57:11;;;;;;;12.27;6.43;;;;;;;;;;5001022;28;20186;-90
2023/01/12 08:59:37;;;;;;;8.70;4.93;;;;;;;;;;4986294;28;20186;-89
2023/01/12 09:02:05;;;;;;;9.67;6.53;;;;;;;;;;4992418;28;20182;-91
2023/01/12 09:04:39;;;;;;;6.07;4.77;;;;;;;;;;5001398;28;20182;-91
2023/01/12 09:07:15;;;;;;;9.67;5.30;;;;;;;;;;5016778;28;20165;-91
2023/01/12 09:09:43;;;;;;;11.70;5.40;;;;;;;;;;5006203;28;20239;-93
2023/01/12 09:12:11;;;;;;;8.23;6.50;;;;;;;;;;5007726;28;20210;-91
2023/01/12 09:14:49;;;;;;;13.47;7.73;;;;;;;;;;5029448;28;20169;-91
2023/01/12 09:17:28;;;;;;;;;;;;;;;;;;;;;
2023/01/12 09:20:00;;;;;;;12.70;6.63;;;;;;;;;;5023164;28;20213;-90
2023/01/12 09:22:28;;;;;;;11.27;6.20;;;;;;;;;;4983926;28;20193;-91
2023/01/12 09:24:54;;;;;;;9.63;6.77;;;;;;;;;;4974253;28;20190;-89
2023/01/12 09:27:20;;;;;;;13.20;7.20;;;;;;;;;;4994368;28;20182;-91
2023/01/12 09:29:46;;;;;;;17.37;6.63;;;;;;;;;;4995699;28;20178;-91
2023/01/12 09:32:13;;;;;;;11.40;4.87;;;;;;;;;;4999222;28;20206;-91
2023/01/12 09:34:39;;;;;;;10.17;6.37;;;;;;;;;;4979094;28;20221;-90
2023/01/12 09:37:19;;;;;;;;;;;;;;;;;;;;;
2023/01/12 09:39:46;;;;;;;11.43;6.00;;;;;;;;;;5000133;28;20277;-89
2023/01/12 09:48:17;;;;;;;11.33;7.37;;;;;;;;;;5002006;28;20193;-92
2023/01/12 09:50:58;;;;;;;12.17;6.17;;;5.30;99.90;;;;;;5014465;28;20174;-90
2023/01/12 09:53:27;;;;;;;11.37;7.30;;;;;;;;;;4989646;28;20253;-90
2023/01/12 09:55:53;;;;;;;13.37;7.60;;;;;;;;;;4995941;28;20193;-92
2023/01/12 09:58:38;;;;;;;11.43;6.73;;;;;;;;;;4993514;28;20207;-93
2023/01/12 10:01:15;;;;;;;11.20;4.97;;;;;;;;;;5007924;28;20185;-89
2023/01/12 10:03:42;;;;;;;9.43;5.30;;;;;;;;;;5006409;28;20189;-90
2023/01/12 10:06:16;;;;;;;7.60;4.63;;;;;;;;;;4992097;28;20280;-91
2023/01/12 10:08:45;;;;;;;11.30;5.70;;;;;;;;;;5009481;28;20209;-91
2023/01/12 10:11:39;;;;;;;12.70;6.70;;;5.60;99.90;;;;;;5008093;28;20300;-91
2023/01/12 10:14:14;;;;;;;13.30;6.90;;;;;;;;;;5008584;28;20202;-91
2023/01/12 10:16:47;;;;;;;8.83;5.33;;;;;;;;;;5008310;28;20180;-89
2023/01/12 10:19:32;;;;;;;9.13;4.67;;;;;;;;;;5024202;28;20185;-90
2023/01/12 10:22:02;;;;;;;7.77;5.07;;;;;;;;;;5022564;28;20177;-89
2023/01/12 10:24:29;;;;;;;9.37;5.97;;;;;;;;;;5020280;28;20172;-88
2023/01/12 10:27:04;;;;;;;10.80;7.07;;;;;;;;;;5021204;28;20191;-89
2023/01/12 10:29:31;;;;;;;14.47;5.27;;;;;;;;;;5021631;28;20172;-90
2023/01/12 10:32:00;;;;;;;8.23;5.97;;;;;;;;;;5021809;28;20196;-89
2023/01/12 10:34:29;;;;;;;12.40;6.13;;;;;;;;;;5020958;28;20183;-89
2023/01/12 10:37:09;;;;;;;12.70;6.57;;;5.70;99.90;;;;;;5022415;28;20172;-89
2023/01/12 10:39:43;;;;;;;10.97;5.43;;;;;;;;;;5025771;28;20198;-89
2023/01/12 10:43:17;;;;;;;8.33;6.20;;;;;;;;;;5023727;28;20176;-88
2023/01/12 10:45:13;;;;;;;8.77;5.67;;;;;;;;;;5024078;28;20732;-89
2023/01/12 10:47:39;;;;;;;15.93;6.73;;;;;;;;;;5004069;28;20267;-89
2023/01/12 10:50:28;;;;;;;11.83;5.00;;;;;;;;;;4987300;28;20177;-89
2023/01/12 10:52:56;;;;;;;12.10;6.83;;;;;;;;;;4990614;28;20255;-89
2023/01/12 10:55:31;;;;;;;10.27;5.10;;;;;;;;;;4985907;28;20272;-89
2023/01/12 10:57:57;;;;;;;13.17;5.90;;;;;;;;;;4990201;28;20235;-90
2023/01/12 11:00:28;;;;;;;10.03;5.43;;;5.80;99.90;;;;;;4989218;28;20178;-89
2023/01/12 11:02:55;;;;;;;11.50;5.90;;;;;;;;;;4987907;28;20178;-90
2023/01/12 11:05:48;;;;;;;10.30;5.63;;;5.80;99.90;;;;;;4989114;28;20244;-91
2023/01/12 11:08:22;;;;;;;15.70;6.63;;;;;;;;;;4988752;28;20170;-89
2023/01/12 11:10:48;;;;;;;8.53;5.57;;;;;;;;;;4988988;28;20237;-90
2023/01/12 11:13:35;;;;;;;9.73;4.90;;;5.80;99.90;;;;;;4990455;28;20314;-89
2023/01/12 11:16:11;;;;;;;4.50;2.53;;;;;;;;;;4987347;28;20670;-89
2023/01/12 11:18:45;;;;;;;5.60;3.47;;;5.80;99.90;;;;;;4990196;28;20182;-90
2023/01/12 11:21:20;;;;;;;7.87;4.37;;;;;;;;;;5007700;28;20161;-91
2023/01/12 11:23:49;;;;;;;7.37;4.07;;;;;;;;;;4971871;28;20186;-89
2023/01/12 11:26:21;;;;;;;9.77;5.80;;;;;;;;;;4989218;28;20261;-91
2023/01/12 11:28:51;;;;;;;8.47;5.43;;;;;;;;;;4991974;28;20189;-90
2023/01/12 11:31:25;;;;;;;8.47;4.70;;;;;;;;;;4985870;28;20249;-90
2023/01/12 11:34:24;;;;;;;14.73;5.30;;;5.80;99.90;;;;;;4986772;28;20654;-90
2023/01/12 11:36:59;;;;;;;7.97;3.80;;;;;;;;;;4973625;28;20301;-91
2023/01/12 11:39:27;;;;;;;12.73;5.27;;;;;;;;;;4990334;28;20185;-90
2023/01/12 11:44:38;;;;;;;7.53;4.13;;;;;;;;;;5015488;28;20197;-88
2023/01/12 11:47:13;;;;;;;10.07;5.47;;;5.80;99.90;;;;;;5023991;28;20189;-88
2023/01/12 11:49:54;;;;;;;8.30;5.00;;;5.80;99.90;;;;;;5001262;28;20555;-89
2023/01/12 11:52:20;;;;;;;10.77;5.23;;;;;;;;;;4995844;28;20211;-88
2023/01/12 11:54:46;;;;;;;10.33;5.97;;;;;;;;;;4971043;28;20201;-88
2023/01/12 11:57:30;;;;;;;6.00;4.87;;;5.80;99.90;;;;;;4986030;28;20276;-88
2023/01/12 12:00:39;;;;;;;8.97;6.60;;;5.80;99.90;;;;;;4991204;28;20181;-88
2023/01/12 12:03:29;;;;;;;9.47;6.13;;;5.80;99.90;;;;;;4975986;28;20231;-88
2023/01/12 12:06:19;;;;;;;7.53;4.67;;;5.80;99.90;;;;;;5001082;28;20177;-88
2023/01/12 12:09:18;;;;;;;13.60;6.87;;;5.80;99.90;;;;;;4985030;28;20515;-88
2023/01/12 12:11:44;;;;;;;15.57;5.93;;;;;;;;;;5000676;28;20221;-88
2023/01/12 12:14:31;;;;;;;13.43;5.80;;;5.90;99.90;;;;;;4999668;28;20181;-88
2023/01/12 12:17:02;;;;;;;6.30;4.20;;;;;;;;;;4999187;28;20181;-88
2023/01/12 12:19:43;;;;;;;15.43;5.67;;;5.90;99.90;;;;;;4996242;28;20635;-88
2023/01/12 12:22:38;;;;;;;5.93;3.53;;;5.90;99.90;;;;;;4996363;28;20213;-88
2023/01/12 12:25:43;;;;;;;10.60;5.63;;;5.90;99.90;;;;;;4997005;28;20186;-88
2023/01/12 12:28:17;;;;;;;12.57;5.83;;;;;;;;;;5006936;28;20184;-88
2023/01/12 12:31:19;;;;;;;9.63;5.30;;;6.00;99.90;;;;;;4984317;28;20181;-88
2023/01/12 12:33:49;;;;;;;11.87;5.43;;;;;;;;;;4990939;28;20631;-89
2023/01/12 12:36:23;;;;;;;13.87;6.53;;;5.90;99.90;;;;;;4979289;28;20248;-88
2023/01/12 12:39:32;;;;;;;9.07;5.17;;;6.00;99.90;;;;;;4996667;28;20200;-88
2023/01/12 12:45:23;;;;;;;9.87;6.37;;;6.00;99.90;;;;;;4997618;28;20200;-91
2023/01/12 12:48:22;;;;;;;12.57;6.40;;;6.00;99.90;;;;;;4980969;28;20185;-88
2023/01/12 12:51:07;;;;;;;17.37;7.53;;;;;;;;;;4981516;28;20181;-89
2023/01/12 12:53:35;;;;;;;13.40;6.43;;;;;;;;;;4985193;28;20259;-90
2023/01/12 12:56:09;;;;;;;11.27;5.07;;;;;;;;;;4985514;28;20201;-89
2023/01/12 12:58:39;;;;;;;12.03;6.50;;;;;;;;;;4986431;28;20312;-89
2023/01/12 13:01:25;;;;;;;20.33;8.53;;;;;;;;;;4983131;28;20209;-89
2023/01/12 13:04:11;;;;;;;11.83;6.33;;;6.10;99.90;;;;;;4980657;28;20190;-87
2023/01/12 13:06:42;;;;;;;24.90;8.67;;;;;;;;;;4999424;28;20611;-87
2023/01/12 13:09:11;;;;;;;9.33;5.30;;;;;;;;;;5001108;28;20170;-87
2023/01/12 13:12:00;;;;;;;17.53;7.10;;;;;;;;;;4978041;28;20604;-87
2023/01/12 13:15:05;;;;;;;11.90;5.43;;;6.20;99.90;;;;;;4976788;28;20194;-88
2023/01/12 13:17:34;;;;;;;19.77;7.70;;;;;;;;;;4974770;28;20194;-88
2023/01/12 13:20:00;;;;;;;6.30;4.93;;;;;;;;;;4974182;28;20210;-87
2023/01/12 13:22:39;;;;;;;15.23;7.67;;;;;;;;;;4989561;28;20197;-88
2023/01/12 13:25:08;;;;;;;18.40;8.97;;;;;;;;;;4990756;28;20191;-87
2023/01/12 13:27:59;;;;;;;10.37;5.80;;;;;;;;;;4976583;28;20650;-88
2023/01/12 13:30:28;;;;;;;14.80;5.97;;;;;;;;;;4976243;28;20274;-88
2023/01/12 13:32:55;;;;;;;13.43;7.23;;;;;;;;;;4978856;28;20214;-87
2023/01/12 13:35:49;;;;;;;19.23;7.57;;;6.60;99.90;;;;;;4977676;28;20182;-88
2023/01/12 13:38:20;;;;;;;12.40;6.23;;;;;;;;;;4980858;28;20224;-87
2023/01/12 13:40:46;;;;;;;23.83;7.10;;;;;;;;;;4981414;28;20178;-90
2023/01/12 13:43:24;;;;;;;11.90;5.43;;;;;;;;;;4992846;28;20260;-87
2023/01/12 13:45:54;;;;;;;15.73;7.47;;;;;;;;;;4997589;28;20190;-87
2023/01/12 13:48:23;;;;;;;13.03;6.23;;;;;;;;;;4998570;28;20276;-88
2023/01/12 13:50:53;;;;;;;13.83;6.13;;;;;;;;;;5000831;28;20182;-87
2023/01/12 13:53:28;;;;;;;9.77;7.10;;;6.50;99.90;;;;;;5001225;28;20241;-87
2023/01/12 13:56:06;;;;;;;12.03;7.17;;;6.40;99.90;;;;;;4992467;28;20619;-89
2023/01/12 13:58:42;;;;;;;18.27;6.97;;;6.30;99.90;;;;;;4979437;28;20281;-89
2023/01/12 14:01:22;;;;;;;27.80;7.73;;;6.30;99.90;;;;;;4979621;28;20196;-88
2023/01/12 14:03:54;;;;;;;12.90;6.67;;;;;;;;;;4981889;28;20270;-89
2023/01/12 14:06:33;;;;;;;9.57;7.50;;;;;;;;;;4981241;28;20190;-89
2023/01/12 14:09:12;;;;;;;17.03;8.60;;;;;;;;;;4991799;28;20196;-89
2023/01/12 14:11:38;;;;;;;32.87;11.03;;;;;;;;;;4961709;28;1165674;-89
2023/01/12 14:17:47;;;;;;;37.97;17.67;;;;;;;;;;5003928;28;20217;-90
2023/01/12 14:19:50;;;;;;;23.70;10.67;;;;;;;;;;4966724;28;20194;-89
2023/01/12 14:22:53;;;;;;;29.57;11.83;;;5.90;99.90;;;;;;4984782;28;20257;-90
2023/01/12 14:25:21;;;;;;;28.50;12.53;;;5.90;99.90;;;;;;4995321;28;20187;-90
2023/01/12 14:27:52;;;;;;;32.33;13.70;;;5.80;99.90;;;;;;4968795;28;20207;-91
2023/01/12 14:30:19;;;;;;;38.07;14.97;;;;;;;;;;4977159;28;20705;-89
2023/01/12 14:32:49;;;;;;;22.93;13.03;;;5.70;99.90;;;;;;4983838;28;20207;-89
2023/01/12 14:35:20;;;;;;;23.10;12.27;;;5.60;99.90;;;;;;4989505;28;20178;-90
2023/01/12 14:38:04;;;;;;;30.70;13.37;;;5.60;99.90;;;;;;4984731;28;20174;-89
2023/01/12 14:40:32;;;;;;;33.63;14.33;;;5.50;99.90;;;;;;4979698;28;20178;-88
2023/01/12 14:46:25;;;;;;;27.87;12.23;;;5.50;99.90;;;;;;4998429;28;20193;-88
2023/01/12 14:49:00;;;;;;;17.63;10.57;;;;;;;;;;4997166;28;20188;-90
2023/01/12 14:51:39;;;;;;;22.70;10.37;;;;;;;;;;5003912;28;20178;-86
2023/01/12 14:54:23;;;;;;;16.47;10.33;;;;;;;;;;4978201;28;20182;-87
2023/01/12 14:57:06;;;;;;;20.03;8.80;;;5.30;99.90;;;;;;4983510;28;20273;-89
2023/01/12 14:59:38;;;;;;;20.80;9.90;;;;;;;;;;4990811;28;20166;-88
2023/01/12 15:02:10;;;;;;;19.93;9.23;;;;;;;;;;4983668;28;20187;-90
2023/01/12 15:04:37;;;;;;;19.77;11.40;;;;;;;;;;4985590;28;20178;-91
2023/01/12 15:07:06;;;;;;;19.17;11.73;;;;;;;;;;4987366;28;20202;-89
2023/01/12 15:09:36;;;;;;;28.43;10.53;;;;;;;;;;4988440;28;20186;-89
2023/01/12 15:12:24;;;;;;;26.67;13.73;;;;;;;;;;4990608;28;20226;-90
2023/01/12 15:27:20;;;;;;;34.73;13.47;;;;;;;;;;4994819;28;20221;-91
2023/01/12 15:29:51;;;;;;;32.57;17.47;;;;;;;;;;4976259;28;20182;-92
2023/01/12 15:32:21;;;;;;;24.73;13.03;;;;;;;;;;4980445;28;20218;-91